createdAt,value
2023-03-10T00:01:20.906Z,2.33
2023-03-10T00:03:49.739Z,2.80
2023-03-10T00:06:21.965Z,3.65
2023-03-10T00:08:51.305Z,3.00
2023-03-10T00:11:20.033Z,3.10
2023-03-10T00:13:48.477Z,2.80
2023-03-10T00:16:19.393Z,2.97
2023-03-10T00:18:47.980Z,2.67
2023-03-10T00:21:19.489Z,2.80
2023-03-10T00:23:47.887Z,3.17
2023-03-10T00:26:17.934Z,2.85
2023-03-10T00:28:46.855Z,3.08
2023-03-10T00:31:17.760Z,2.53
2023-03-10T00:33:46.826Z,2.78
2023-03-10T00:36:17.623Z,2.88
2023-03-10T00:38:48.163Z,3.10
2023-03-10T00:41:18.798Z,2.42
2023-03-10T00:43:47.748Z,2.60
2023-03-10T00:46:16.345Z,3.42
2023-03-10T00:48:45.105Z,2.83
2023-03-10T00:51:13.927Z,2.90
2023-03-10T00:53:43.079Z,2.72
2023-03-10T00:56:15.162Z,2.38
2023-03-10T00:58:44.248Z,2.85
2023-03-10T01:01:15.662Z,2.45
2023-03-10T01:03:44.260Z,3.05
2023-03-10T01:06:12.859Z,3.05
2023-03-10T01:08:41.300Z,2.60
2023-03-10T01:11:09.722Z,2.80
2023-03-10T01:13:41.073Z,2.38
2023-03-10T01:16:09.634Z,3.00
2023-03-10T01:18:38.202Z,2.72
2023-03-10T01:21:07.517Z,3.55
2023-03-10T01:23:35.895Z,3.30
2023-03-10T01:26:04.187Z,3.22
2023-03-10T01:28:32.353Z,3.03
2023-03-10T01:31:02.404Z,3.47
2023-03-10T01:33:30.702Z,3.03
2023-03-10T01:35:58.966Z,2.67
2023-03-10T01:38:27.284Z,2.88
2023-03-10T01:40:55.587Z,2.65
2023-03-10T01:43:31.921Z,3.05
2023-03-10T01:46:38.430Z,2.30
2023-03-10T01:49:13.558Z,3.35
2023-03-10T01:51:44.691Z,2.80
2023-03-10T01:54:18.333Z,1.65
2023-03-10T01:56:47.505Z,2.80
2023-03-10T01:59:16.412Z,2.28
2023-03-10T02:01:47.705Z,2.70
2023-03-10T02:04:21.297Z,2.60
2023-03-10T02:06:50.138Z,2.90
2023-03-10T02:09:19.969Z,3.15
2023-03-10T02:11:49.596Z,2.28
2023-03-10T02:14:19.163Z,2.17
2023-03-10T02:16:49.115Z,2.72
2023-03-10T02:19:29.116Z,2.35
2023-03-10T02:22:06.480Z,2.50
2023-03-10T02:24:44.686Z,2.85
2023-03-10T02:27:17.866Z,2.50
2023-03-10T02:29:59.391Z,2.65
2023-03-10T02:32:30.593Z,2.38
2023-03-10T02:34:59.003Z,2.28
2023-03-10T02:37:30.540Z,3.13
2023-03-10T02:39:59.454Z,2.05
2023-03-10T02:42:33.955Z,2.72
2023-03-10T02:45:03.912Z,2.85
2023-03-10T02:47:32.580Z,2.60
2023-03-10T02:50:00.909Z,3.22
2023-03-10T02:52:35.979Z,3.42
2023-03-10T02:55:04.322Z,2.40
2023-03-10T02:57:34.161Z,3.38
2023-03-10T03:00:02.765Z,3.45
2023-03-10T03:02:33.084Z,2.35
2023-03-10T03:05:01.544Z,2.80
2023-03-10T03:07:30.001Z,2.30
2023-03-10T03:09:58.429Z,2.08
2023-03-10T03:12:26.690Z,2.20
2023-03-10T03:14:56.453Z,2.08
2023-03-10T03:17:24.892Z,2.88
2023-03-10T03:19:53.493Z,2.83
2023-03-10T03:22:21.972Z,2.50
2023-03-10T03:24:50.384Z,2.40
2023-03-10T03:27:18.686Z,2.70
2023-03-10T03:29:46.953Z,2.42
2023-03-10T03:32:16.892Z,2.20
2023-03-10T03:34:45.431Z,2.13
2023-03-10T03:37:13.964Z,2.65
2023-03-10T03:39:42.305Z,2.35
2023-03-10T03:42:10.594Z,2.63
2023-03-10T03:44:38.985Z,2.50
2023-03-10T03:47:09.256Z,1.85
2023-03-10T03:49:39.359Z,2.72
2023-03-10T03:52:08.649Z,2.00
2023-03-10T03:54:37.003Z,2.55
2023-03-10T03:57:05.533Z,2.58
2023-03-10T03:59:33.820Z,2.40
2023-03-10T04:02:02.168Z,3.25
2023-03-10T04:04:30.381Z,1.97
2023-03-10T04:07:00.394Z,2.55
2023-03-10T04:09:29.065Z,3.00
2023-03-10T04:11:57.446Z,2.45
2023-03-10T04:21:49.944Z,2.40
2023-03-10T04:24:19.762Z,2.75
2023-03-10T04:26:48.126Z,2.35
2023-03-10T04:29:16.342Z,2.10
2023-03-10T04:31:50.534Z,2.97
2023-03-10T04:34:27.438Z,1.67
2023-03-10T04:36:55.694Z,2.67
2023-03-10T04:39:25.415Z,2.15
2023-03-10T04:41:53.765Z,2.60
2023-03-10T04:44:30.838Z,3.22
2023-03-10T04:46:59.922Z,2.22
2023-03-10T04:49:30.597Z,2.78
2023-03-10T04:52:01.811Z,2.33
2023-03-10T04:54:31.558Z,3.83
2023-03-10T04:56:59.885Z,2.97
2023-03-10T04:59:28.460Z,3.05
2023-03-10T05:01:56.843Z,2.45
2023-03-10T05:04:25.171Z,2.88
2023-03-10T05:06:53.890Z,2.53
2023-03-10T05:09:22.380Z,2.60
2023-03-10T05:11:52.473Z,2.45
2023-03-10T05:14:20.951Z,2.80
2023-03-10T05:16:49.743Z,3.28
2023-03-10T05:19:18.509Z,2.63
2023-03-10T05:21:46.828Z,3.30
2023-03-10T05:24:15.351Z,2.65
2023-03-10T05:26:43.721Z,3.05
2023-03-10T05:29:13.732Z,2.88
2023-03-10T05:31:42.273Z,2.45
2023-03-10T05:34:10.639Z,2.30
2023-03-10T05:36:39.315Z,2.90
2023-03-10T05:39:09.575Z,2.38
2023-03-10T05:41:38.343Z,2.47
2023-03-10T05:44:07.084Z,2.92
2023-03-10T05:46:36.911Z,2.72
2023-03-10T05:49:05.154Z,2.80
2023-03-10T05:51:33.589Z,2.33
2023-03-10T05:54:02.000Z,3.08
2023-03-10T05:56:30.288Z,3.17
2023-03-10T05:58:58.662Z,2.83
2023-03-10T06:01:27.225Z,3.40
2023-03-10T06:03:57.384Z,3.22
2023-03-10T06:06:25.749Z,3.38
2023-03-10T06:08:53.998Z,3.25
2023-03-10T06:11:22.700Z,2.55
2023-03-10T06:13:51.009Z,4.18
2023-03-10T06:16:19.336Z,3.75
2023-03-10T06:18:47.711Z,2.17
2023-03-10T06:21:20.157Z,2.72
2023-03-10T06:23:48.434Z,3.08
2023-03-10T06:26:18.021Z,3.70
2023-03-10T06:28:47.916Z,2.17
2023-03-10T06:31:18.403Z,2.05
2023-03-10T06:33:46.852Z,2.42
2023-03-10T06:36:17.755Z,2.80
2023-03-10T06:38:46.105Z,2.53
2023-03-10T06:41:14.569Z,2.35
2023-03-10T06:43:42.849Z,2.10
2023-03-10T06:46:12.498Z,2.70
2023-03-10T06:48:42.816Z,2.00
2023-03-10T06:51:13.080Z,2.50
2023-03-10T06:53:42.939Z,2.17
2023-03-10T06:56:15.177Z,1.95
2023-03-10T06:58:44.247Z,2.72
2023-03-10T07:01:24.218Z,2.70
2023-03-10T07:03:53.110Z,2.17
2023-03-10T07:06:21.665Z,2.25
2023-03-10T07:08:51.808Z,2.78
2023-03-10T07:11:20.826Z,2.58
2023-03-10T07:13:51.861Z,3.10
2023-03-10T07:16:20.991Z,2.47
2023-03-10T07:18:51.150Z,3.35
2023-03-10T07:21:21.470Z,2.75
2023-03-10T07:23:51.669Z,3.28
2023-03-10T07:26:19.969Z,3.03
2023-03-10T07:28:51.323Z,2.92
2023-03-10T07:31:19.651Z,2.80
2023-03-10T07:33:51.781Z,2.97
2023-03-10T07:36:24.406Z,3.03
2023-03-10T07:38:54.171Z,3.22
2023-03-10T07:41:23.173Z,2.88
2023-03-10T07:43:56.392Z,3.28
2023-03-10T07:46:26.188Z,2.83
2023-03-10T07:48:56.424Z,2.58
2023-03-10T07:51:24.575Z,4.03
2023-03-10T07:53:54.514Z,3.20
2023-03-10T07:56:23.204Z,3.13
2023-03-10T07:58:51.530Z,3.83
2023-03-10T08:01:22.177Z,3.63
2023-03-10T08:03:51.068Z,3.30
2023-03-10T08:06:22.054Z,3.38
2023-03-10T08:08:53.888Z,3.35
2023-03-10T08:11:25.084Z,3.40
2023-03-10T08:13:53.791Z,3.90
2023-03-10T08:16:23.865Z,3.75
2023-03-10T08:18:56.369Z,3.65
2023-03-10T08:21:27.496Z,3.65
2023-03-10T08:23:57.406Z,3.40
2023-03-10T08:26:25.545Z,3.88
2023-03-10T08:28:54.087Z,3.63
2023-03-10T08:31:23.193Z,3.67
2023-03-10T08:33:51.703Z,3.63
2023-03-10T08:36:22.314Z,3.70
2023-03-10T08:38:52.251Z,3.65
2023-03-10T08:41:25.334Z,2.75
2023-03-10T08:43:55.224Z,3.60
2023-03-10T08:46:25.526Z,3.03
2023-03-10T08:48:55.454Z,2.60
2023-03-10T08:51:27.666Z,2.97
2023-03-10T08:53:56.661Z,3.90
2023-03-10T08:56:27.138Z,3.20
2023-03-10T08:58:59.034Z,2.15
2023-03-10T09:01:28.387Z,3.10
2023-03-10T09:03:57.083Z,2.17
2023-03-10T09:06:25.441Z,3.17
2023-03-10T09:08:55.176Z,2.85
2023-03-10T09:11:28.242Z,2.75
2023-03-10T09:13:57.565Z,2.00
2023-03-10T09:16:26.265Z,2.65
2023-03-10T09:18:57.824Z,2.35
2023-03-10T09:21:26.359Z,2.55
2023-03-10T09:23:54.583Z,2.80
2023-03-10T09:26:23.660Z,2.33
2023-03-10T09:28:56.842Z,2.47
2023-03-10T09:31:29.691Z,2.88
2023-03-10T09:34:01.098Z,2.65
2023-03-10T09:36:30.393Z,3.00
2023-03-10T09:39:19.966Z,2.97
2023-03-10T09:42:37.340Z,3.03
2023-03-10T09:45:21.428Z,4.25
2023-03-10T09:48:05.009Z,4.35
2023-03-10T09:50:37.222Z,4.20
2023-03-10T09:58:20.076Z,3.90
2023-03-10T10:00:51.105Z,4.47
2023-03-10T10:16:21.202Z,4.60
2023-03-10T10:28:57.175Z,5.05
2023-03-10T10:31:29.075Z,5.07
2023-03-10T10:34:00.109Z,4.75
2023-03-10T10:36:31.403Z,4.68
2023-03-10T10:39:00.240Z,4.72
2023-03-10T10:49:09.140Z,4.35
2023-03-10T10:51:38.928Z,5.28
2023-03-10T10:54:26.308Z,5.00
2023-03-10T10:56:56.001Z,4.70
2023-03-10T18:43:10.775Z,1.48
2023-03-10T18:45:40.984Z,1.42
2023-03-10T18:48:09.324Z,1.00
2023-03-10T18:50:37.563Z,1.98
2023-03-10T18:53:05.825Z,1.80
2023-03-10T18:55:35.461Z,1.45
2023-03-10T18:58:03.690Z,1.02
2023-03-10T19:00:32.046Z,1.20
2023-03-10T19:03:00.247Z,1.20
2023-03-10T19:05:28.990Z,1.20
2023-03-10T19:07:57.146Z,1.17
2023-03-10T19:10:25.536Z,1.40
2023-03-10T19:12:55.111Z,1.23
2023-03-10T19:15:23.421Z,1.23
2023-03-10T19:17:51.744Z,1.30
2023-03-10T19:20:20.122Z,1.40
2023-03-10T19:22:51.003Z,1.52
2023-03-10T19:25:20.379Z,1.20
2023-03-10T19:27:49.046Z,1.35
2023-03-10T19:30:21.067Z,0.77
2023-03-10T19:32:50.070Z,0.60
2023-03-10T19:35:19.233Z,1.05
2023-03-10T19:37:47.437Z,0.55
2023-03-10T19:40:17.918Z,0.80
2023-03-10T19:42:46.728Z,0.80
2023-03-10T19:45:16.667Z,0.70
2023-03-10T19:47:49.782Z,0.50
2023-03-10T19:50:19.236Z,0.60
2023-03-10T19:52:48.905Z,0.65
2023-03-10T19:55:19.747Z,0.70
2023-03-10T19:57:49.426Z,0.70
2023-03-10T20:00:21.071Z,0.75
2023-03-10T20:02:50.700Z,0.55
2023-03-10T20:05:19.900Z,0.35
2023-03-10T20:07:48.839Z,0.70
2023-03-10T20:10:18.891Z,0.70
2023-03-10T20:12:48.019Z,0.40
2023-03-10T20:15:17.385Z,0.30
2023-03-10T20:17:45.716Z,0.80
2023-03-10T20:20:20.036Z,0.60
2023-03-10T20:22:50.331Z,0.80
2023-03-10T20:25:21.283Z,0.40
2023-03-10T20:27:51.056Z,0.80
2023-03-10T20:30:21.405Z,0.50
2023-03-10T20:32:52.034Z,0.60
2023-03-10T20:35:22.588Z,0.45
2023-03-10T20:37:51.161Z,0.40
2023-03-10T20:40:23.914Z,0.47
2023-03-10T20:42:53.661Z,0.60
2023-03-10T20:45:23.366Z,0.50
2023-03-10T20:47:53.389Z,0.40
2023-03-10T20:50:23.579Z,0.40
2023-03-10T20:52:51.983Z,0.30
2023-03-10T20:55:21.699Z,0.50
2023-03-10T20:57:50.971Z,0.67
2023-03-10T21:00:22.019Z,0.40
2023-03-10T21:02:52.841Z,0.70
2023-03-10T21:05:23.368Z,0.50
2023-03-10T21:07:51.795Z,0.50
2023-03-10T21:10:20.156Z,0.43
2023-03-10T21:12:48.410Z,0.40
2023-03-10T21:15:19.640Z,0.50
2023-03-10T21:20:18.256Z,0.50
2023-03-10T21:22:48.571Z,0.50
2023-03-10T21:25:20.265Z,1.15
2023-03-10T21:27:49.594Z,0.73
2023-03-10T21:30:19.095Z,0.63
2023-03-10T21:32:47.716Z,0.50
2023-03-10T21:35:16.086Z,0.70
2023-03-10T21:37:46.889Z,0.50
2023-03-10T21:40:19.966Z,0.80
2023-03-10T21:42:48.668Z,0.60
2023-03-10T21:45:19.318Z,0.40
2023-03-10T21:47:47.756Z,0.40
2023-03-10T21:50:17.384Z,0.53
2023-03-10T21:52:46.163Z,0.60
2023-03-10T21:55:19.897Z,0.90
2023-03-10T21:57:48.805Z,0.50
2023-03-10T22:00:19.995Z,0.60
2023-03-10T22:02:48.743Z,0.65
2023-03-10T22:05:19.037Z,0.93
2023-03-10T22:07:47.588Z,0.60
2023-03-10T22:10:18.146Z,0.70
2023-03-10T22:12:46.773Z,0.90
2023-03-10T22:15:18.608Z,0.70
2023-03-10T22:17:47.126Z,0.70
2023-03-10T22:20:18.563Z,0.60
2023-03-10T22:22:47.013Z,0.60
2023-03-10T22:25:17.594Z,0.60
2023-03-10T22:27:49.282Z,0.70
2023-03-10T22:30:17.797Z,0.50
2023-03-10T22:32:46.046Z,0.67
2023-03-10T22:35:14.419Z,1.02
2023-03-10T22:37:43.328Z,1.20
2023-03-10T22:40:16.252Z,0.50
2023-03-10T22:42:46.499Z,0.80
2023-03-10T22:45:19.532Z,0.95
2023-03-10T22:47:48.546Z,0.85
2023-03-10T22:50:19.128Z,0.88
2023-03-10T22:52:47.389Z,0.73
2023-03-10T22:55:17.645Z,1.08
2023-03-10T22:57:47.333Z,0.90
2023-03-10T23:00:23.691Z,0.90
2023-03-10T23:02:56.259Z,1.20
2023-03-10T23:05:24.719Z,1.08
2023-03-10T23:07:52.976Z,0.70
2023-03-10T23:15:25.322Z,1.10
2023-03-10T23:17:54.882Z,1.00
2023-03-10T23:20:27.213Z,1.25
2023-03-10T23:22:57.899Z,1.03
2023-03-10T23:25:27.957Z,0.80
2023-03-10T23:27:58.181Z,1.35
2023-03-10T23:30:27.216Z,0.43
2023-03-10T23:32:55.500Z,1.00
2023-03-10T23:35:27.771Z,1.00
2023-03-10T23:37:56.382Z,0.70
2023-03-10T23:40:27.162Z,0.60
2023-03-10T23:42:55.900Z,0.60
2023-03-10T23:45:27.332Z,0.93
2023-03-10T23:47:58.560Z,0.80
2023-03-10T23:50:29.378Z,0.90
2023-03-10T23:52:57.832Z,1.30
2023-03-10T23:55:29.301Z,0.70
2023-03-10T23:57:57.676Z,0.60
